Mill Grove, Indiana
Current Conditions -  °F | °C
As of 9:53 AM on Wednesday 26 Nov 2014 (Local Time) from KMIE Reporting Station
Overcast Overcast  
Wind Chill: 19°   Ceiling: 1400
Heat Index: 27°   Visibility: 10mi
Dew Point: 21°   Wind: 8mph
Humidity: 78%   Direction: 90°E
Pressure: 30.15"   Gusts: NA
Location:  40.4568°N, 85.3505°W
Report Text: KMIE 261453Z 09007KT 10SM OVC014 M03/M06 A3015 RMK AO2 SLP218 T10281061 53007
Loading
Personal Weather Stations






























Interactive Weather Map New forecast layout! Learn more

10-Day Weather Forecast

Advertisements
Track Severe Weather on mobile